sensor_id;sensor_type;location;lat;lon;timestamp;P1;durP1;ratioP1;P2;durP2;ratioP2
15841;SDS011;8021;48.022;11.812;2023-02-15T00:01:38;0.70;;;0.70;;
15841;SDS011;8021;48.022;11.812;2023-02-15T00:04:07;0.87;;;0.87;;
15841;SDS011;8021;48.022;11.812;2023-02-15T00:06:36;0.70;;;0.70;;
15841;SDS011;8021;48.022;11.812;2023-02-15T00:09:03;1.03;;;1.00;;
15841;SDS011;8021;48.022;11.812;2023-02-15T00:11:30;0.70;;;0.70;;
15841;SDS011;8021;48.022;11.812;2023-02-15T00:14:09;0.70;;;0.70;;
15841;SDS011;8021;48.022;11.812;2023-02-15T00:16:37;0.90;;;0.90;;
15841;SDS011;8021;48.022;11.812;2023-02-15T00:19:05;0.67;;;0.67;;
15841;SDS011;8021;48.022;11.812;2023-02-15T00:21:34;0.90;;;0.90;;
15841;SDS011;8021;48.022;11.812;2023-02-15T00:24:04;0.90;;;0.90;;
15841;SDS011;8021;48.022;11.812;2023-02-15T00:26:32;0.70;;;0.70;;
15841;SDS011;8021;48.022;11.812;2023-02-15T00:29:00;1.23;;;1.17;;
15841;SDS011;8021;48.022;11.812;2023-02-15T00:31:28;0.90;;;0.90;;
15841;SDS011;8021;48.022;11.812;2023-02-15T00:34:00;1.00;;;1.00;;
15841;SDS011;8021;48.022;11.812;2023-02-15T00:36:30;1.03;;;1.03;;
15841;SDS011;8021;48.022;11.812;2023-02-15T00:38:58;0.87;;;0.87;;
15841;SDS011;8021;48.022;11.812;2023-02-15T00:41:27;1.00;;;1.00;;
15841;SDS011;8021;48.022;11.812;2023-02-15T00:43:54;0.73;;;0.73;;
15841;SDS011;8021;48.022;11.812;2023-02-15T00:46:21;0.80;;;0.80;;
15841;SDS011;8021;48.022;11.812;2023-02-15T00:48:49;0.83;;;0.83;;
15841;SDS011;8021;48.022;11.812;2023-02-15T00:51:17;1.03;;;1.00;;
15841;SDS011;8021;48.022;11.812;2023-02-15T00:53:44;0.97;;;0.97;;
15841;SDS011;8021;48.022;11.812;2023-02-15T00:56:12;1.20;;;1.10;;
15841;SDS011;8021;48.022;11.812;2023-02-15T00:58:42;0.60;;;0.60;;
15841;SDS011;8021;48.022;11.812;2023-02-15T01:01:10;0.93;;;0.93;;
15841;SDS011;8021;48.022;11.812;2023-02-15T01:03:38;1.10;;;1.00;;
15841;SDS011;8021;48.022;11.812;2023-02-15T01:06:08;0.87;;;0.87;;
15841;SDS011;8021;48.022;11.812;2023-02-15T01:08:35;0.70;;;0.70;;
15841;SDS011;8021;48.022;11.812;2023-02-15T01:11:03;0.80;;;0.80;;
15841;SDS011;8021;48.022;11.812;2023-02-15T01:13:31;0.80;;;0.80;;
15841;SDS011;8021;48.022;11.812;2023-02-15T01:16:00;0.83;;;0.83;;
15841;SDS011;8021;48.022;11.812;2023-02-15T01:18:28;0.70;;;0.70;;
15841;SDS011;8021;48.022;11.812;2023-02-15T01:20:56;0.80;;;0.80;;
15841;SDS011;8021;48.022;11.812;2023-02-15T01:23:23;0.70;;;0.70;;
15841;SDS011;8021;48.022;11.812;2023-02-15T01:25:51;0.90;;;0.90;;
15841;SDS011;8021;48.022;11.812;2023-02-15T01:28:21;0.83;;;0.83;;
15841;SDS011;8021;48.022;11.812;2023-02-15T01:30:48;0.90;;;0.90;;
15841;SDS011;8021;48.022;11.812;2023-02-15T01:33:17;0.80;;;0.80;;
15841;SDS011;8021;48.022;11.812;2023-02-15T01:35:44;0.77;;;0.77;;
15841;SDS011;8021;48.022;11.812;2023-02-15T01:38:12;0.90;;;0.90;;
15841;SDS011;8021;48.022;11.812;2023-02-15T01:40:40;0.73;;;0.73;;
15841;SDS011;8021;48.022;11.812;2023-02-15T01:43:09;0.70;;;0.70;;
15841;SDS011;8021;48.022;11.812;2023-02-15T01:45:37;0.90;;;0.90;;
15841;SDS011;8021;48.022;11.812;2023-02-15T01:48:05;0.70;;;0.70;;
15841;SDS011;8021;48.022;11.812;2023-02-15T01:50:35;1.03;;;1.03;;
15841;SDS011;8021;48.022;11.812;2023-02-15T01:53:16;0.80;;;0.80;;
15841;SDS011;8021;48.022;11.812;2023-02-15T01:55:46;0.63;;;0.63;;
15841;SDS011;8021;48.022;11.812;2023-02-15T01:58:14;0.90;;;0.90;;
15841;SDS011;8021;48.022;11.812;2023-02-15T02:00:42;1.00;;;1.00;;
15841;SDS011;8021;48.022;11.812;2023-02-15T02:03:10;0.80;;;0.80;;
15841;SDS011;8021;48.022;11.812;2023-02-15T02:05:39;0.73;;;0.73;;
15841;SDS011;8021;48.022;11.812;2023-02-15T02:08:07;0.70;;;0.70;;
15841;SDS011;8021;48.022;11.812;2023-02-15T02:10:35;0.83;;;0.83;;
15841;SDS011;8021;48.022;11.812;2023-02-15T02:13:04;0.90;;;0.90;;
15841;SDS011;8021;48.022;11.812;2023-02-15T02:15:37;0.70;;;0.70;;
15841;SDS011;8021;48.022;11.812;2023-02-15T02:18:10;1.00;;;1.00;;
15841;SDS011;8021;48.022;11.812;2023-02-15T02:23:45;0.90;;;0.90;;
15841;SDS011;8021;48.022;11.812;2023-02-15T02:29:10;0.80;;;0.80;;
15841;SDS011;8021;48.022;11.812;2023-02-15T02:31:44;0.80;;;0.80;;
15841;SDS011;8021;48.022;11.812;2023-02-15T02:34:13;0.90;;;0.90;;
15841;SDS011;8021;48.022;11.812;2023-02-15T02:36:44;0.90;;;0.90;;
15841;SDS011;8021;48.022;11.812;2023-02-15T02:39:20;0.93;;;0.93;;
15841;SDS011;8021;48.022;11.812;2023-02-15T02:41:51;0.90;;;0.90;;
15841;SDS011;8021;48.022;11.812;2023-02-15T02:44:22;0.93;;;0.93;;
15841;SDS011;8021;48.022;11.812;2023-02-15T02:46:50;1.10;;;1.10;;
15841;SDS011;8021;48.022;11.812;2023-02-15T02:49:29;0.60;;;0.60;;
15841;SDS011;8021;48.022;11.812;2023-02-15T02:51:58;0.80;;;0.80;;
15841;SDS011;8021;48.022;11.812;2023-02-15T02:54:25;0.73;;;0.73;;
15841;SDS011;8021;48.022;11.812;2023-02-15T02:56:53;0.97;;;0.97;;
15841;SDS011;8021;48.022;11.812;2023-02-15T02:59:23;0.80;;;0.80;;
15841;SDS011;8021;48.022;11.812;2023-02-15T03:01:53;1.10;;;1.00;;
15841;SDS011;8021;48.022;11.812;2023-02-15T03:04:25;0.83;;;0.83;;
15841;SDS011;8021;48.022;11.812;2023-02-15T03:06:58;1.20;;;1.10;;
15841;SDS011;8021;48.022;11.812;2023-02-15T03:09:27;0.93;;;0.93;;
15841;SDS011;8021;48.022;11.812;2023-02-15T03:12:01;1.20;;;1.20;;
15841;SDS011;8021;48.022;11.812;2023-02-15T03:14:31;0.80;;;0.80;;
15841;SDS011;8021;48.022;11.812;2023-02-15T03:16:59;1.00;;;1.00;;
15841;SDS011;8021;48.022;11.812;2023-02-15T03:19:27;0.80;;;0.80;;
15841;SDS011;8021;48.022;11.812;2023-02-15T03:22:00;0.70;;;0.70;;
15841;SDS011;8021;48.022;11.812;2023-02-15T03:24:37;0.70;;;0.70;;
15841;SDS011;8021;48.022;11.812;2023-02-15T03:27:08;0.60;;;0.60;;
15841;SDS011;8021;48.022;11.812;2023-02-15T03:29:37;0.70;;;0.70;;
15841;SDS011;8021;48.022;11.812;2023-02-15T03:32:06;0.80;;;0.80;;
15841;SDS011;8021;48.022;11.812;2023-02-15T03:34:34;0.73;;;0.73;;
15841;SDS011;8021;48.022;11.812;2023-02-15T03:37:04;0.90;;;0.90;;
15841;SDS011;8021;48.022;11.812;2023-02-15T03:39:36;0.60;;;0.60;;
15841;SDS011;8021;48.022;11.812;2023-02-15T03:42:07;1.00;;;1.00;;
15841;SDS011;8021;48.022;11.812;2023-02-15T03:44:37;0.97;;;0.97;;
15841;SDS011;8021;48.022;11.812;2023-02-15T03:47:07;0.80;;;0.80;;
15841;SDS011;8021;48.022;11.812;2023-02-15T03:49:37;0.77;;;0.77;;
15841;SDS011;8021;48.022;11.812;2023-02-15T03:52:07;0.80;;;0.80;;
15841;SDS011;8021;48.022;11.812;2023-02-15T03:54:36;0.90;;;0.90;;
15841;SDS011;8021;48.022;11.812;2023-02-15T03:57:10;0.70;;;0.70;;
15841;SDS011;8021;48.022;11.812;2023-02-15T03:59:56;0.90;;;0.90;;
15841;SDS011;8021;48.022;11.812;2023-02-15T04:02:43;0.80;;;0.80;;
15841;SDS011;8021;48.022;11.812;2023-02-15T04:05:13;0.80;;;0.80;;
15841;SDS011;8021;48.022;11.812;2023-02-15T04:07:41;0.73;;;0.73;;
15841;SDS011;8021;48.022;11.812;2023-02-15T04:10:09;0.80;;;0.80;;
15841;SDS011;8021;48.022;11.812;2023-02-15T04:12:56;0.80;;;0.80;;
15841;SDS011;8021;48.022;11.812;2023-02-15T04:15:24;0.83;;;0.83;;
15841;SDS011;8021;48.022;11.812;2023-02-15T04:18:09;0.63;;;0.63;;
15841;SDS011;8021;48.022;11.812;2023-02-15T04:20:36;0.80;;;0.80;;
15841;SDS011;8021;48.022;11.812;2023-02-15T04:23:23;0.67;;;0.67;;
15841;SDS011;8021;48.022;11.812;2023-02-15T04:26:08;0.60;;;0.60;;
15841;SDS011;8021;48.022;11.812;2023-02-15T04:28:35;0.90;;;0.90;;
15841;SDS011;8021;48.022;11.812;2023-02-15T04:31:02;1.00;;;1.00;;
15841;SDS011;8021;48.022;11.812;2023-02-15T04:33:30;0.73;;;0.73;;
15841;SDS011;8021;48.022;11.812;2023-02-15T04:35:57;0.80;;;0.80;;
15841;SDS011;8021;48.022;11.812;2023-02-15T04:38:27;1.00;;;1.00;;
15841;SDS011;8021;48.022;11.812;2023-02-15T04:40:54;0.90;;;0.90;;
15841;SDS011;8021;48.022;11.812;2023-02-15T04:43:22;0.93;;;0.93;;
15841;SDS011;8021;48.022;11.812;2023-02-15T04:45:49;1.10;;;1.10;;
15841;SDS011;8021;48.022;11.812;2023-02-15T04:48:17;1.00;;;1.00;;
15841;SDS011;8021;48.022;11.812;2023-02-15T04:50:45;1.10;;;1.00;;
15841;SDS011;8021;48.022;11.812;2023-02-15T04:53:12;0.97;;;0.97;;
15841;SDS011;8021;48.022;11.812;2023-02-15T04:55:41;1.30;;;1.20;;
15841;SDS011;8021;48.022;11.812;2023-02-15T04:58:08;0.90;;;0.90;;
15841;SDS011;8021;48.022;11.812;2023-02-15T05:00:36;0.90;;;0.90;;
15841;SDS011;8021;48.022;11.812;2023-02-15T05:03:03;0.90;;;0.90;;
15841;SDS011;8021;48.022;11.812;2023-02-15T05:05:31;0.73;;;0.73;;
15841;SDS011;8021;48.022;11.812;2023-02-15T05:07:58;1.30;;;1.20;;
15841;SDS011;8021;48.022;11.812;2023-02-15T05:10:26;1.10;;;1.00;;
15841;SDS011;8021;48.022;11.812;2023-02-15T05:12:55;0.90;;;0.90;;
15841;SDS011;8021;48.022;11.812;2023-02-15T05:15:22;1.30;;;1.20;;
15841;SDS011;8021;48.022;11.812;2023-02-15T05:17:50;1.00;;;1.00;;
15841;SDS011;8021;48.022;11.812;2023-02-15T05:20:17;1.10;;;1.10;;
15841;SDS011;8021;48.022;11.812;2023-02-15T05:22:45;0.80;;;0.80;;
15841;SDS011;8021;48.022;11.812;2023-02-15T05:25:12;0.80;;;0.80;;
15841;SDS011;8021;48.022;11.812;2023-02-15T05:27:59;1.30;;;1.20;;
15841;SDS011;8021;48.022;11.812;2023-02-15T05:30:44;0.90;;;0.90;;
15841;SDS011;8021;48.022;11.812;2023-02-15T05:33:11;1.37;;;1.27;;
15841;SDS011;8021;48.022;11.812;2023-02-15T05:35:39;1.10;;;1.10;;
15841;SDS011;8021;48.022;11.812;2023-02-15T05:38:09;1.20;;;1.20;;
15841;SDS011;8021;48.022;11.812;2023-02-15T05:40:36;1.03;;;1.00;;
15841;SDS011;8021;48.022;11.812;2023-02-15T05:43:05;1.20;;;1.20;;
15841;SDS011;8021;48.022;11.812;2023-02-15T05:45:33;0.83;;;0.83;;
15841;SDS011;8021;48.022;11.812;2023-02-15T05:48:00;1.00;;;1.00;;
15841;SDS011;8021;48.022;11.812;2023-02-15T05:50:28;0.90;;;0.90;;
15841;SDS011;8021;48.022;11.812;2023-02-15T05:52:58;0.90;;;0.90;;
15841;SDS011;8021;48.022;11.812;2023-02-15T05:55:28;1.10;;;1.10;;
15841;SDS011;8021;48.022;11.812;2023-02-15T05:57:55;1.00;;;1.00;;
15841;SDS011;8021;48.022;11.812;2023-02-15T06:00:24;0.73;;;0.73;;
15841;SDS011;8021;48.022;11.812;2023-02-15T06:02:52;0.90;;;0.90;;
15841;SDS011;8021;48.022;11.812;2023-02-15T06:05:22;0.90;;;0.90;;
15841;SDS011;8021;48.022;11.812;2023-02-15T06:07:49;0.70;;;0.70;;
15841;SDS011;8021;48.022;11.812;2023-02-15T06:10:17;0.60;;;0.60;;
15841;SDS011;8021;48.022;11.812;2023-02-15T06:12:44;0.83;;;0.83;;
15841;SDS011;8021;48.022;11.812;2023-02-15T06:15:11;0.80;;;0.80;;
15841;SDS011;8021;48.022;11.812;2023-02-15T06:17:42;0.73;;;0.73;;
15841;SDS011;8021;48.022;11.812;2023-02-15T06:20:09;0.80;;;0.80;;
15841;SDS011;8021;48.022;11.812;2023-02-15T06:22:37;0.80;;;0.80;;
15841;SDS011;8021;48.022;11.812;2023-02-15T06:25:05;0.83;;;0.83;;
15841;SDS011;8021;48.022;11.812;2023-02-15T06:27:35;0.70;;;0.70;;
15841;SDS011;8021;48.022;11.812;2023-02-15T06:30:03;0.80;;;0.80;;
15841;SDS011;8021;48.022;11.812;2023-02-15T06:32:31;1.03;;;1.03;;
15841;SDS011;8021;48.022;11.812;2023-02-15T06:35:00;0.90;;;0.90;;
15841;SDS011;8021;48.022;11.812;2023-02-15T06:37:28;0.80;;;0.80;;
15841;SDS011;8021;48.022;11.812;2023-02-15T06:39:56;0.80;;;0.80;;
15841;SDS011;8021;48.022;11.812;2023-02-15T06:42:24;0.80;;;0.80;;
15841;SDS011;8021;48.022;11.812;2023-02-15T06:44:52;0.70;;;0.70;;
15841;SDS011;8021;48.022;11.812;2023-02-15T06:47:20;0.80;;;0.80;;
15841;SDS011;8021;48.022;11.812;2023-02-15T06:49:47;0.87;;;0.87;;
15841;SDS011;8021;48.022;11.812;2023-02-15T06:52:16;0.70;;;0.70;;
15841;SDS011;8021;48.022;11.812;2023-02-15T06:54:43;0.77;;;0.77;;
15841;SDS011;8021;48.022;11.812;2023-02-15T06:57:11;0.90;;;0.90;;
15841;SDS011;8021;48.022;11.812;2023-02-15T06:59:38;0.77;;;0.77;;
15841;SDS011;8021;48.022;11.812;2023-02-15T07:02:06;0.80;;;0.80;;
15841;SDS011;8021;48.022;11.812;2023-02-15T07:04:33;0.60;;;0.60;;
15841;SDS011;8021;48.022;11.812;2023-02-15T07:07:01;0.70;;;0.70;;
15841;SDS011;8021;48.022;11.812;2023-02-15T07:09:30;0.70;;;0.70;;
15841;SDS011;8021;48.022;11.812;2023-02-15T07:11:57;0.90;;;0.90;;
15841;SDS011;8021;48.022;11.812;2023-02-15T07:14:47;0.70;;;0.70;;
15841;SDS011;8021;48.022;11.812;2023-02-15T07:17:15;0.70;;;0.70;;
15841;SDS011;8021;48.022;11.812;2023-02-15T07:20:00;0.50;;;0.50;;
15841;SDS011;8021;48.022;11.812;2023-02-15T07:22:28;0.50;;;0.50;;
15841;SDS011;8021;48.022;11.812;2023-02-15T07:24:57;0.40;;;0.40;;
15841;SDS011;8021;48.022;11.812;2023-02-15T07:27:24;0.40;;;0.40;;
15841;SDS011;8021;48.022;11.812;2023-02-15T07:29:52;0.32;;;0.32;;
15841;SDS011;8021;48.022;11.812;2023-02-15T07:32:19;0.30;;;0.30;;
15841;SDS011;8021;48.022;11.812;2023-02-15T07:34:47;0.30;;;0.30;;
15841;SDS011;8021;48.022;11.812;2023-02-15T07:37:14;0.40;;;0.40;;
15841;SDS011;8021;48.022;11.812;2023-02-15T07:39:42;0.40;;;0.40;;
15841;SDS011;8021;48.022;11.812;2023-02-15T07:42:10;0.40;;;0.40;;
15841;SDS011;8021;48.022;11.812;2023-02-15T07:44:39;0.30;;;0.30;;
15841;SDS011;8021;48.022;11.812;2023-02-15T07:47:07;0.30;;;0.30;;
15841;SDS011;8021;48.022;11.812;2023-02-15T07:49:35;0.30;;;0.30;;
15841;SDS011;8021;48.022;11.812;2023-02-15T07:52:02;0.30;;;0.30;;
15841;SDS011;8021;48.022;11.812;2023-02-15T07:54:30;0.30;;;0.20;;
15841;SDS011;8021;48.022;11.812;2023-02-15T07:56:57;0.30;;;0.30;;
15841;SDS011;8021;48.022;11.812;2023-02-15T07:59:26;0.20;;;0.20;;
15841;SDS011;8021;48.022;11.812;2023-02-15T08:01:54;0.30;;;0.20;;
15841;SDS011;8021;48.022;11.812;2023-02-15T08:04:22;0.20;;;0.20;;
15841;SDS011;8021;48.022;11.812;2023-02-15T08:06:51;0.20;;;0.20;;
15841;SDS011;8021;48.022;11.812;2023-02-15T08:09:19;0.20;;;0.20;;
15841;SDS011;8021;48.022;11.812;2023-02-15T08:11:47;0.20;;;0.20;;
15841;SDS011;8021;48.022;11.812;2023-02-15T08:14:15;0.20;;;0.20;;
15841;SDS011;8021;48.022;11.812;2023-02-15T08:16:45;0.25;;;0.20;;
15841;SDS011;8021;48.022;11.812;2023-02-15T08:19:13;0.20;;;0.20;;
15841;SDS011;8021;48.022;11.812;2023-02-15T08:21:42;0.20;;;0.10;;
15841;SDS011;8021;48.022;11.812;2023-02-15T08:24:10;0.20;;;0.20;;
15841;SDS011;8021;48.022;11.812;2023-02-15T08:26:38;0.10;;;0.10;;
15841;SDS011;8021;48.022;11.812;2023-02-15T08:29:09;0.20;;;0.13;;
15841;SDS011;8021;48.022;11.812;2023-02-15T08:31:36;0.20;;;0.20;;
15841;SDS011;8021;48.022;11.812;2023-02-15T08:34:05;0.20;;;0.20;;
15841;SDS011;8021;48.022;11.812;2023-02-15T08:36:33;0.20;;;0.10;;
15841;SDS011;8021;48.022;11.812;2023-02-15T08:39:01;0.13;;;0.10;;
15841;SDS011;8021;48.022;11.812;2023-02-15T08:41:30;0.20;;;0.10;;
15841;SDS011;8021;48.022;11.812;2023-02-15T08:43:59;0.10;;;0.10;;
15841;SDS011;8021;48.022;11.812;2023-02-15T08:46:27;0.10;;;0.10;;
15841;SDS011;8021;48.022;11.812;2023-02-15T08:48:55;0.10;;;0.10;;
15841;SDS011;8021;48.022;11.812;2023-02-15T08:51:25;0.10;;;0.10;;
15841;SDS011;8021;48.022;11.812;2023-02-15T08:53:53;0.10;;;0.10;;
15841;SDS011;8021;48.022;11.812;2023-02-15T08:56:21;0.10;;;0.10;;
15841;SDS011;8021;48.022;11.812;2023-02-15T08:58:49;0.10;;;0.10;;
15841;SDS011;8021;48.022;11.812;2023-02-15T09:01:18;0.10;;;0.10;;
15841;SDS011;8021;48.022;11.812;2023-02-15T09:03:46;0.10;;;0.10;;
15841;SDS011;8021;48.022;11.812;2023-02-15T09:06:14;0.20;;;0.20;;
15841;SDS011;8021;48.022;11.812;2023-02-15T09:08:43;0.10;;;0.10;;
15841;SDS011;8021;48.022;11.812;2023-02-15T09:11:12;0.20;;;0.20;;
15841;SDS011;8021;48.022;11.812;2023-02-15T09:13:42;0.10;;;0.10;;
15841;SDS011;8021;48.022;11.812;2023-02-15T09:16:11;0.20;;;0.20;;
15841;SDS011;8021;48.022;11.812;2023-02-15T09:18:38;0.10;;;0.10;;
15841;SDS011;8021;48.022;11.812;2023-02-15T09:21:06;0.10;;;0.10;;
15841;SDS011;8021;48.022;11.812;2023-02-15T09:23:34;0.20;;;0.20;;
15841;SDS011;8021;48.022;11.812;2023-02-15T09:26:04;0.30;;;0.20;;
15841;SDS011;8021;48.022;11.812;2023-02-15T09:28:32;0.25;;;0.20;;
15841;SDS011;8021;48.022;11.812;2023-02-15T09:31:07;0.30;;;0.30;;
15841;SDS011;8021;48.022;11.812;2023-02-15T09:33:35;0.35;;;0.35;;
15841;SDS011;8021;48.022;11.812;2023-02-15T09:36:03;0.40;;;0.40;;
15841;SDS011;8021;48.022;11.812;2023-02-15T09:38:30;0.30;;;0.30;;
15841;SDS011;8021;48.022;11.812;2023-02-15T09:41:15;0.30;;;0.30;;
15841;SDS011;8021;48.022;11.812;2023-02-15T09:43:48;0.30;;;0.30;;
15841;SDS011;8021;48.022;11.812;2023-02-15T09:46:27;0.30;;;0.30;;
15841;SDS011;8021;48.022;11.812;2023-02-15T09:48:56;0.38;;;0.38;;
15841;SDS011;8021;48.022;11.812;2023-02-15T09:51:31;0.40;;;0.40;;
15841;SDS011;8021;48.022;11.812;2023-02-15T09:56:48;0.40;;;0.40;;
15841;SDS011;8021;48.022;11.812;2023-02-15T09:59:21;0.30;;;0.30;;
15841;SDS011;8021;48.022;11.812;2023-02-15T10:01:54;0.40;;;0.40;;
15841;SDS011;8021;48.022;11.812;2023-02-15T10:04:33;0.30;;;0.30;;
15841;SDS011;8021;48.022;11.812;2023-02-15T10:07:05;0.30;;;0.30;;
15841;SDS011;8021;48.022;11.812;2023-02-15T10:09:46;0.35;;;0.35;;
15841;SDS011;8021;48.022;11.812;2023-02-15T10:12:22;0.30;;;0.30;;
15841;SDS011;8021;48.022;11.812;2023-02-15T10:15:04;0.30;;;0.30;;
15841;SDS011;8021;48.022;11.812;2023-02-15T10:17:40;0.40;;;0.40;;
15841;SDS011;8021;48.022;11.812;2023-02-15T10:20:13;0.50;;;0.50;;
15841;SDS011;8021;48.022;11.812;2023-02-15T10:22:47;0.40;;;0.40;;
15841;SDS011;8021;48.022;11.812;2023-02-15T10:25:20;0.30;;;0.30;;
15841;SDS011;8021;48.022;11.812;2023-02-15T10:27:49;0.40;;;0.40;;
15841;SDS011;8021;48.022;11.812;2023-02-15T10:30:19;0.40;;;0.40;;
15841;SDS011;8021;48.022;11.812;2023-02-15T10:32:52;0.32;;;0.32;;
15841;SDS011;8021;48.022;11.812;2023-02-15T10:35:23;0.45;;;0.45;;
15841;SDS011;8021;48.022;11.812;2023-02-15T10:37:55;0.30;;;0.30;;
15841;SDS011;8021;48.022;11.812;2023-02-15T10:40:28;0.40;;;0.40;;
15841;SDS011;8021;48.022;11.812;2023-02-15T10:43:05;0.40;;;0.40;;
15841;SDS011;8021;48.022;11.812;2023-02-15T10:45:37;0.57;;;0.57;;
15841;SDS011;8021;48.022;11.812;2023-02-15T10:48:15;0.30;;;0.30;;
15841;SDS011;8021;48.022;11.812;2023-02-15T10:50:48;0.30;;;0.30;;
15841;SDS011;8021;48.022;11.812;2023-02-15T10:53:26;0.40;;;0.40;;
15841;SDS011;8021;48.022;11.812;2023-02-15T10:55:58;0.30;;;0.30;;
15841;SDS011;8021;48.022;11.812;2023-02-15T10:58:34;0.30;;;0.30;;
15841;SDS011;8021;48.022;11.812;2023-02-15T11:01:08;0.30;;;0.30;;
15841;SDS011;8021;48.022;11.812;2023-02-15T11:03:41;0.30;;;0.30;;
15841;SDS011;8021;48.022;11.812;2023-02-15T11:06:13;0.40;;;0.40;;
15841;SDS011;8021;48.022;11.812;2023-02-15T11:09:08;0.40;;;0.40;;
15841;SDS011;8021;48.022;11.812;2023-02-15T11:11:37;0.30;;;0.30;;
15841;SDS011;8021;48.022;11.812;2023-02-15T11:14:10;0.40;;;0.40;;
15841;SDS011;8021;48.022;11.812;2023-02-15T11:16:43;0.40;;;0.40;;
15841;SDS011;8021;48.022;11.812;2023-02-15T11:19:12;0.38;;;0.38;;
15841;SDS011;8021;48.022;11.812;2023-02-15T11:21:42;0.40;;;0.40;;
15841;SDS011;8021;48.022;11.812;2023-02-15T11:24:10;0.40;;;0.40;;
15841;SDS011;8021;48.022;11.812;2023-02-15T11:26:39;0.38;;;0.38;;
15841;SDS011;8021;48.022;11.812;2023-02-15T11:29:10;0.30;;;0.30;;
15841;SDS011;8021;48.022;11.812;2023-02-15T11:31:42;0.30;;;0.30;;
15841;SDS011;8021;48.022;11.812;2023-02-15T11:34:12;0.32;;;0.32;;
15841;SDS011;8021;48.022;11.812;2023-02-15T11:36:42;0.40;;;0.40;;
15841;SDS011;8021;48.022;11.812;2023-02-15T11:39:11;0.40;;;0.40;;
15841;SDS011;8021;48.022;11.812;2023-02-15T11:41:40;0.40;;;0.40;;
15841;SDS011;8021;48.022;11.812;2023-02-15T11:44:11;0.32;;;0.32;;
15841;SDS011;8021;48.022;11.812;2023-02-15T11:46:39;0.38;;;0.38;;
15841;SDS011;8021;48.022;11.812;2023-02-15T11:49:10;0.40;;;0.40;;
15841;SDS011;8021;48.022;11.812;2023-02-15T11:51:47;0.40;;;0.40;;
15841;SDS011;8021;48.022;11.812;2023-02-15T11:54:17;0.30;;;0.30;;
15841;SDS011;8021;48.022;11.812;2023-02-15T11:56:44;0.30;;;0.30;;
15841;SDS011;8021;48.022;11.812;2023-02-15T11:59:12;0.30;;;0.30;;
15841;SDS011;8021;48.022;11.812;2023-02-15T12:01:43;0.40;;;0.40;;
15841;SDS011;8021;48.022;11.812;2023-02-15T12:04:16;0.50;;;0.50;;
15841;SDS011;8021;48.022;11.812;2023-02-15T12:06:46;0.40;;;0.40;;
15841;SDS011;8021;48.022;11.812;2023-02-15T12:09:17;0.30;;;0.30;;
15841;SDS011;8021;48.022;11.812;2023-02-15T12:11:48;0.40;;;0.40;;
15841;SDS011;8021;48.022;11.812;2023-02-15T12:14:16;0.40;;;0.40;;
15841;SDS011;8021;48.022;11.812;2023-02-15T12:16:44;0.30;;;0.30;;
15841;SDS011;8021;48.022;11.812;2023-02-15T12:19:27;0.40;;;0.40;;
15841;SDS011;8021;48.022;11.812;2023-02-15T12:21:55;0.40;;;0.40;;
15841;SDS011;8021;48.022;11.812;2023-02-15T12:24:25;0.40;;;0.40;;
15841;SDS011;8021;48.022;11.812;2023-02-15T12:26:57;0.40;;;0.40;;
15841;SDS011;8021;48.022;11.812;2023-02-15T12:29:25;0.40;;;0.40;;
15841;SDS011;8021;48.022;11.812;2023-02-15T12:31:54;0.40;;;0.40;;
15841;SDS011;8021;48.022;11.812;2023-02-15T12:34:22;0.50;;;0.50;;
15841;SDS011;8021;48.022;11.812;2023-02-15T12:36:52;0.38;;;0.38;;
15841;SDS011;8021;48.022;11.812;2023-02-15T12:39:24;0.30;;;0.30;;
15841;SDS011;8021;48.022;11.812;2023-02-15T12:41:57;0.30;;;0.30;;
15841;SDS011;8021;48.022;11.812;2023-02-15T12:44:26;0.35;;;0.35;;
15841;SDS011;8021;48.022;11.812;2023-02-15T12:46:56;0.40;;;0.40;;
15841;SDS011;8021;48.022;11.812;2023-02-15T12:49:24;0.30;;;0.30;;
15841;SDS011;8021;48.022;11.812;2023-02-15T12:51:54;0.30;;;0.30;;
15841;SDS011;8021;48.022;11.812;2023-02-15T12:54:35;0.32;;;0.32;;
15841;SDS011;8021;48.022;11.812;2023-02-15T12:57:21;0.40;;;0.40;;
15841;SDS011;8021;48.022;11.812;2023-02-15T12:59:49;0.38;;;0.38;;
15841;SDS011;8021;48.022;11.812;2023-02-15T13:02:19;0.40;;;0.40;;
15841;SDS011;8021;48.022;11.812;2023-02-15T13:04:49;0.40;;;0.40;;
15841;SDS011;8021;48.022;11.812;2023-02-15T13:07:28;0.40;;;0.40;;
15841;SDS011;8021;48.022;11.812;2023-02-15T13:09:57;0.40;;;0.40;;
15841;SDS011;8021;48.022;11.812;2023-02-15T13:12:25;0.50;;;0.50;;
15841;SDS011;8021;48.022;11.812;2023-02-15T13:14:53;0.40;;;0.40;;
15841;SDS011;8021;48.022;11.812;2023-02-15T13:20:16;0.30;;;0.30;;
15841;SDS011;8021;48.022;11.812;2023-02-15T13:22:46;0.30;;;0.30;;
15841;SDS011;8021;48.022;11.812;2023-02-15T13:25:14;0.40;;;0.40;;
15841;SDS011;8021;48.022;11.812;2023-02-15T13:27:43;0.30;;;0.30;;
15841;SDS011;8021;48.022;11.812;2023-02-15T13:30:19;0.30;;;0.30;;
15841;SDS011;8021;48.022;11.812;2023-02-15T13:32:48;0.40;;;0.40;;
15841;SDS011;8021;48.022;11.812;2023-02-15T13:35:17;0.40;;;0.40;;
15841;SDS011;8021;48.022;11.812;2023-02-15T13:40:35;0.30;;;0.30;;
15841;SDS011;8021;48.022;11.812;2023-02-15T13:43:05;0.40;;;0.40;;
15841;SDS011;8021;48.022;11.812;2023-02-15T13:45:39;0.47;;;0.47;;
15841;SDS011;8021;48.022;11.812;2023-02-15T13:48:13;0.35;;;0.35;;
15841;SDS011;8021;48.022;11.812;2023-02-15T13:50:48;0.40;;;0.40;;
15841;SDS011;8021;48.022;11.812;2023-02-15T13:53:22;0.38;;;0.38;;
15841;SDS011;8021;48.022;11.812;2023-02-15T13:55:53;0.30;;;0.30;;
15841;SDS011;8021;48.022;11.812;2023-02-15T13:58:25;0.30;;;0.30;;
15841;SDS011;8021;48.022;11.812;2023-02-15T14:01:00;0.40;;;0.40;;
15841;SDS011;8021;48.022;11.812;2023-02-15T14:06:20;0.30;;;0.30;;
15841;SDS011;8021;48.022;11.812;2023-02-15T14:08:59;0.30;;;0.30;;
15841;SDS011;8021;48.022;11.812;2023-02-15T14:11:35;0.30;;;0.30;;
15841;SDS011;8021;48.022;11.812;2023-02-15T14:14:23;0.40;;;0.40;;
15841;SDS011;8021;48.022;11.812;2023-02-15T14:16:59;0.40;;;0.40;;
15841;SDS011;8021;48.022;11.812;2023-02-15T14:19:35;0.40;;;0.38;;
15841;SDS011;8021;48.022;11.812;2023-02-15T14:22:06;0.30;;;0.30;;
15841;SDS011;8021;48.022;11.812;2023-02-15T14:24:38;0.30;;;0.30;;
15841;SDS011;8021;48.022;11.812;2023-02-15T14:27:13;0.35;;;0.35;;
15841;SDS011;8021;48.022;11.812;2023-02-15T14:29:46;0.30;;;0.30;;
15841;SDS011;8021;48.022;11.812;2023-02-15T14:32:16;0.40;;;0.40;;
15841;SDS011;8021;48.022;11.812;2023-02-15T14:34:46;0.40;;;0.40;;
15841;SDS011;8021;48.022;11.812;2023-02-15T14:37:16;0.30;;;0.30;;
15841;SDS011;8021;48.022;11.812;2023-02-15T14:39:47;0.30;;;0.30;;
15841;SDS011;8021;48.022;11.812;2023-02-15T14:42:39;0.32;;;0.32;;
15841;SDS011;8021;48.022;11.812;2023-02-15T14:45:13;0.30;;;0.30;;
15841;SDS011;8021;48.022;11.812;2023-02-15T14:47:44;0.40;;;0.40;;
15841;SDS011;8021;48.022;11.812;2023-02-15T14:50:35;0.25;;;0.25;;
15841;SDS011;8021;48.022;11.812;2023-02-15T14:56:04;0.30;;;0.30;;
15841;SDS011;8021;48.022;11.812;2023-02-15T14:58:34;0.30;;;0.30;;
15841;SDS011;8021;48.022;11.812;2023-02-15T15:01:04;0.30;;;0.30;;
15841;SDS011;8021;48.022;11.812;2023-02-15T15:03:33;0.40;;;0.40;;
15841;SDS011;8021;48.022;11.812;2023-02-15T15:06:02;0.38;;;0.38;;
15841;SDS011;8021;48.022;11.812;2023-02-15T15:08:32;0.40;;;0.40;;
15841;SDS011;8021;48.022;11.812;2023-02-15T15:14:10;0.38;;;0.38;;
15841;SDS011;8021;48.022;11.812;2023-02-15T15:16:48;0.40;;;0.40;;
15841;SDS011;8021;48.022;11.812;2023-02-15T15:22:17;0.35;;;0.35;;
15841;SDS011;8021;48.022;11.812;2023-02-15T15:24:48;0.38;;;0.38;;
15841;SDS011;8021;48.022;11.812;2023-02-15T15:30:10;0.40;;;0.40;;
15841;SDS011;8021;48.022;11.812;2023-02-15T15:32:59;0.40;;;0.40;;
15841;SDS011;8021;48.022;11.812;2023-02-15T15:35:32;0.40;;;0.40;;
15841;SDS011;8021;48.022;11.812;2023-02-15T15:40:50;0.32;;;0.32;;